Time;durP1;ratioP1;P1;durP2;ratioP2;P2;SDS_P1;SDS_P2;PMS_P1;PMS_P2;Temp;Humidity;BMP_temperature;BMP_pressure;BME280_temperature;BME280_humidity;BME280_pressure;Samples;Min_cycle;Max_cycle;Signal;HPM_P1;HPM_P2
2023/05/22 00:00:03;;;;;;;14.60;8.70;;;;;;;;;;5040237;28;20397;-72
2023/05/22 00:02:32;;;;;;;16.30;8.38;;;;;;;;;;5036957;28;20048;-72
2023/05/22 00:04:59;;;;;;;13.95;8.73;;;;;;;;;;5049798;28;20031;-72
2023/05/22 00:07:26;;;;;;;11.57;8.48;;;;;;;;;;5043915;28;20056;-72
2023/05/22 00:09:51;;;;;;;11.63;8.20;;;;;;;;;;5047312;28;20033;-72
2023/05/22 00:12:16;;;;;;;13.80;9.05;;;;;;;;;;5049995;28;20412;-72
2023/05/22 00:14:42;;;;;;;11.43;8.15;;;;;;;;;;5049854;28;20021;-72
2023/05/22 00:17:09;;;;;;;12.65;8.77;;;;;;;;;;5050546;28;20087;-72
2023/05/22 00:19:34;;;;;;;14.35;8.70;;;;;;;;;;5050241;28;20032;-72
2023/05/22 00:22:00;;;;;;;13.82;9.30;;;;;;;;;;5052882;28;20021;-70
2023/05/22 00:24:25;;;;;;;15.95;8.82;;;;;;;;;;5051200;28;20037;-69
2023/05/22 00:26:50;;;;;;;14.18;8.55;;;;;;;;;;5050809;28;20063;-70
2023/05/22 00:29:15;;;;;;;13.00;8.63;;;;;;;;;;5051484;28;20032;-70
2023/05/22 00:31:41;;;;;;;10.48;8.15;;;;;;;;;;5051178;28;20029;-70
2023/05/22 00:34:06;;;;;;;13.73;8.10;;;;;;;;;;5049126;28;20039;-70
2023/05/22 00:36:31;;;;;;;10.93;7.93;;;;;;;;;;5053623;28;20551;-70
2023/05/22 00:38:57;;;;;;;13.35;8.43;;;;;;;;;;5050600;28;20039;-69
2023/05/22 00:41:22;;;;;;;16.02;9.32;;;;;;;;;;5052115;28;20037;-70
2023/05/22 00:43:49;;;;;;;14.23;8.57;;;;;;;;;;5050224;28;20381;-70
2023/05/22 00:46:20;;;;;;;10.90;7.93;;;;;;;;;;5051294;28;20025;-69
2023/05/22 00:48:45;;;;;;;9.75;7.90;;;;;;;;;;5049949;28;20047;-70
2023/05/22 00:51:11;;;;;;;10.10;7.68;;;;;;;;;;5051049;28;20028;-69
2023/05/22 00:53:37;;;;;;;10.98;7.85;;;;;;;;;;5053668;28;20108;-70
2023/05/22 00:56:02;;;;;;;18.33;8.60;;;;;;;;;;5054181;28;20048;-69
2023/05/22 00:58:27;;;;;;;11.95;8.13;;;;;;;;;;5051139;28;20033;-69
2023/05/22 01:03:56;;;;;;;13.43;8.52;;;;;;;;;;5097021;22;20522;-72
2023/05/22 01:06:21;;;;;;;13.38;8.70;;;;;;;;;;5084344;28;20028;-72
2023/05/22 01:08:46;;;;;;;10.20;7.53;;;;;;;;;;5092731;28;20027;-72
2023/05/22 01:11:18;;;;;;;12.45;7.95;;;;;;;;;;5092958;28;20039;-71
2023/05/22 01:14:02;;;;;;;12.13;7.90;;;;;;;;;;5091739;28;20024;-72
2023/05/22 01:16:47;;;;;;;11.40;8.00;;;;;;;;;;5091595;28;20425;-72
2023/05/22 01:19:35;;;;;;;11.15;8.00;;;;;;;;;;5088859;28;20111;-72
2023/05/22 01:22:29;;;;;;;12.00;7.75;;;;;;;;;;5072532;28;20602;-71
2023/05/22 01:25:16;;;;;;;12.40;7.82;;;;;;;;;;5039838;28;20042;-72
2023/05/22 01:27:50;;;;;;;11.13;8.02;;;;;;;;;;5088886;28;20099;-72
2023/05/22 01:30:45;;;;;;;11.68;7.60;;;;;;;;;;5082170;28;20489;-72
2023/05/22 01:33:13;;;;;;;14.38;8.40;;;;;;;;;;5082446;28;20037;-72
2023/05/22 01:35:39;;;;;;;11.95;8.15;;;;;;;;;;5090331;28;20482;-72
2023/05/22 01:38:05;;;;;;;12.90;7.68;;;;;;;;;;5093958;28;20103;-72
2023/05/22 01:40:31;;;;;;;12.43;8.40;;;;;;;;;;5091711;28;20380;-72
2023/05/22 01:42:57;;;;;;;14.02;8.32;;;;;;;;;;5089354;28;20044;-71
2023/05/22 01:45:22;;;;;;;14.63;8.27;;;;;;;;;;5089150;28;20028;-71
2023/05/22 01:47:47;;;;;;;13.23;8.55;;;;;;;;;;5091113;28;20120;-71
2023/05/22 01:50:13;;;;;;;11.88;8.20;;;;;;;;;;5090551;28;20036;-71
2023/05/22 01:53:11;;;;;;;11.95;8.27;;;;;;;;;;5088529;28;20126;-71
2023/05/22 01:55:44;;;;;;;13.85;8.95;;;;;;;;;;5057923;28;20036;-71
2023/05/22 01:58:23;;;;;;;12.98;8.85;;;;;;;;;;5086954;28;20012;-72
2023/05/22 02:00:50;;;;;;;17.42;9.23;;;;;;;;;;5090804;28;20365;-71
2023/05/22 02:03:17;;;;;;;16.98;9.27;;;;;;;;;;5091191;28;20495;-66
2023/05/22 02:05:44;;;;;;;13.25;8.68;;;;;;;;;;5090051;28;20387;-66
2023/05/22 02:08:10;;;;;;;13.65;8.48;;;;;;;;;;5093251;28;20028;-66
2023/05/22 02:10:36;;;;;;;14.73;8.90;;;;;;;;;;5091339;28;20594;-65
2023/05/22 02:13:01;;;;;;;13.80;9.13;;;;;;;;;;5092213;28;20016;-66
2023/05/22 02:15:27;;;;;;;15.65;9.82;;;;;;;;;;5085407;28;20407;-66
2023/05/22 02:17:52;;;;;;;12.88;8.57;;;;;;;;;;5086093;28;20431;-66
2023/05/22 02:20:17;;;;;;;14.43;8.93;;;;;;;;;;5077250;28;20059;-66
2023/05/22 02:22:43;;;;;;;11.77;8.80;;;;;;;;;;5090966;28;20077;-66
2023/05/22 02:25:13;;;;;;;15.35;9.23;;;;;;;;;;5093522;28;20079;-66
2023/05/22 02:27:38;;;;;;;12.30;9.23;;;;;;;;;;5081380;28;20069;-66
2023/05/22 02:30:04;;;;;;;13.77;9.23;;;;;;;;;;5081863;28;20024;-66
2023/05/22 02:32:30;;;;;;;15.40;9.18;;;;;;;;;;5091967;28;20023;-66
2023/05/22 02:34:55;;;;;;;13.77;10.25;;;;;;;;;;5091555;28;20503;-65
2023/05/22 02:37:20;;;;;;;13.57;9.32;;;;;;;;;;5084658;28;20376;-66
2023/05/22 02:39:46;;;;;;;13.32;8.85;;;;;;;;;;5093151;28;20063;-66
2023/05/22 02:42:11;;;;;;;15.63;9.48;;;;;;;;;;5089809;28;20533;-66
2023/05/22 02:44:36;;;;;;;15.43;9.57;;;;;;;;;;5091578;28;20020;-66
2023/05/22 02:47:02;;;;;;;14.65;9.48;;;;;;;;;;5092041;28;20099;-66
2023/05/22 02:49:27;;;;;;;16.15;9.55;;;;;;;;;;5092152;28;20502;-66
2023/05/22 02:51:52;;;;;;;19.58;9.82;;;;;;;;;;5091918;28;20024;-66
2023/05/22 02:54:17;;;;;;;13.57;9.40;;;;;;;;;;5087747;28;20487;-66
2023/05/22 02:56:43;;;;;;;12.75;9.60;;;;;;;;;;5086754;28;20418;-66
2023/05/22 02:59:08;;;;;;;16.60;9.40;;;;;;;;;;5083016;28;20086;-66
2023/05/22 03:01:35;;;;;;;13.95;9.60;;;;;;;;;;5090734;28;20027;-65
2023/05/22 03:04:00;;;;;;;13.93;10.38;;;;;;;;;;5091620;28;20036;-66
2023/05/22 03:06:25;;;;;;;16.15;9.55;;;;;;;;;;5076082;28;20077;-66
2023/05/22 03:08:51;;;;;;;14.70;9.48;;;;;;;;;;5085084;28;20151;-66
2023/05/22 03:11:17;;;;;;;15.30;10.43;;;;;;;;;;5090898;28;20020;-66
2023/05/22 03:13:42;;;;;;;16.55;10.48;;;;;;;;;;5087324;28;20069;-66
2023/05/22 03:16:07;;;;;;;14.35;10.50;;;;;;;;;;5090208;28;20383;-66
2023/05/22 03:18:33;;;;;;;15.77;10.82;;;;;;;;;;5075032;28;20168;-66
2023/05/22 03:20:59;;;;;;;15.73;10.70;;;;;;;;;;5085977;28;20056;-66
2023/05/22 03:23:24;;;;;;;13.70;10.25;;;;;;;;;;5087971;28;20488;-66
2023/05/22 03:25:50;;;;;;;12.63;10.23;;;;;;;;;;5090437;28;20020;-66
2023/05/22 03:28:15;;;;;;;14.85;10.57;;;;;;;;;;5073408;28;20016;-66
2023/05/22 03:30:40;;;;;;;15.93;10.45;;;;;;;;;;5084109;28;20020;-66
2023/05/22 03:33:06;;;;;;;16.90;11.98;;;;;;;;;;5077542;28;20016;-65
2023/05/22 03:35:31;;;;;;;16.55;11.00;;;;;;;;;;5092355;28;20473;-65
2023/05/22 03:37:56;;;;;;;16.95;11.63;;;;;;;;;;5091786;28;20020;-66
2023/05/22 03:40:21;;;;;;;14.70;11.43;;;;;;;;;;5088397;28;20042;-66
2023/05/22 03:42:48;;;;;;;19.88;12.80;;;;;;;;;;5087100;28;20027;-65
2023/05/22 03:45:13;;;;;;;16.85;11.75;;;;;;;;;;5089965;28;20016;-65
2023/05/22 03:47:39;;;;;;;16.73;11.77;;;;;;;;;;5086290;28;20522;-65
2023/05/22 03:50:04;;;;;;;17.20;12.13;;;;;;;;;;5080282;28;20351;-65
2023/05/22 03:52:29;;;;;;;18.65;12.45;;;;;;;;;;5087065;28;20393;-65
2023/05/22 03:54:55;;;;;;;18.80;11.95;;;;;;;;;;5088925;28;20050;-65
2023/05/22 03:57:20;;;;;;;19.27;11.23;;;;;;;;;;5087173;28;20415;-65
2023/05/22 03:59:46;;;;;;;18.25;12.00;;;;;;;;;;5083776;28;20023;-66
2023/05/22 04:02:11;;;;;;;18.45;11.80;;;;;;;;;;5087062;28;20036;-65
2023/05/22 04:04:37;;;;;;;17.27;11.15;;;;;;;;;;5090001;28;20590;-66
2023/05/22 04:07:07;;;;;;;20.50;11.35;;;;;;;;;;5084016;28;20111;-65
2023/05/22 04:09:33;;;;;;;15.07;11.52;;;;;;;;;;5083539;28;20030;-65
2023/05/22 04:12:00;;;;;;;17.67;11.20;;;;;;;;;;5084844;28;20091;-65
2023/05/22 04:14:25;;;;;;;17.38;11.35;;;;;;;;;;5081483;28;20028;-65
2023/05/22 04:16:51;;;;;;;15.15;10.73;;;;;;;;;;5086722;28;20021;-65
2023/05/22 04:19:16;;;;;;;16.05;10.30;;;;;;;;;;5088464;28;20099;-65
2023/05/22 04:21:42;;;;;;;13.20;10.27;;;;;;;;;;5084488;28;20127;-65
2023/05/22 04:24:08;;;;;;;17.75;10.13;;;;;;;;;;5090856;28;20052;-65
2023/05/22 04:26:33;;;;;;;13.15;9.77;;;;;;;;;;5092609;28;20104;-66
2023/05/22 04:28:59;;;;;;;15.05;10.25;;;;;;;;;;5096301;28;20094;-65
2023/05/22 04:31:24;;;;;;;12.88;9.95;;;;;;;;;;5087245;28;20161;-65
2023/05/22 04:33:49;;;;;;;16.40;10.07;;;;;;;;;;5086671;28;20372;-65
2023/05/22 04:36:16;;;;;;;13.07;9.85;;;;;;;;;;5086315;28;20023;-65
2023/05/22 04:38:43;;;;;;;13.93;9.85;;;;;;;;;;5085395;28;20027;-65
2023/05/22 04:41:09;;;;;;;15.25;9.60;;;;;;;;;;5094623;28;20103;-66
2023/05/22 04:43:35;;;;;;;13.00;9.32;;;;;;;;;;5088627;28;20112;-65
2023/05/22 04:46:00;;;;;;;12.68;9.50;;;;;;;;;;5087467;28;20012;-66
2023/05/22 04:48:26;;;;;;;14.90;9.82;;;;;;;;;;5082764;28;20024;-66
2023/05/22 04:50:53;;;;;;;15.45;10.95;;;;;;;;;;5093910;28;20020;-66
2023/05/22 04:53:18;;;;;;;14.63;10.35;;;;;;;;;;5095299;28;20024;-70
2023/05/22 04:55:44;;;;;;;27.08;12.38;;;;;;;;;;5094705;28;20119;-70
2023/05/22 04:58:10;;;;;;;24.63;13.10;;;;;;;;;;5076225;28;20468;-70
2023/05/22 05:00:35;;;;;;;31.23;16.13;;;;;;;;;;5083286;28;20028;-69
2023/05/22 05:03:01;;;;;;;33.75;17.73;;;;;;;;;;5093447;28;20047;-69
2023/05/22 05:05:26;;;;;;;29.55;17.55;;;;;;;;;;5093556;28;20031;-68
2023/05/22 05:07:52;;;;;;;25.85;16.98;;;;;;;;;;5082121;28;20460;-67
2023/05/22 05:10:17;;;;;;;27.20;17.67;;;;;;;;;;5088902;28;20364;-68
2023/05/22 05:12:42;;;;;;;33.42;19.27;;;;;;;;;;5091032;28;20126;-68
2023/05/22 05:15:08;;;;;;;32.78;20.08;;;;;;;;;;5092032;28;20491;-67
2023/05/22 05:17:33;;;;;;;31.23;20.33;;;;;;;;;;5078498;28;20054;-67
2023/05/22 05:19:59;;;;;;;27.75;19.70;;;;;;;;;;5081128;28;20024;-67
2023/05/22 05:22:24;;;;;;;30.15;21.05;;;;;;;;;;5080234;28;20024;-68
2023/05/22 05:24:49;;;;;;;25.27;18.42;;;;;;;;;;5094828;28;20024;-66
2023/05/22 05:27:15;;;;;;;28.00;20.95;;;;;;;;;;5095687;28;20039;-67
2023/05/22 05:29:40;;;;;;;19.95;14.70;;;;;;;;;;5094415;28;20032;-65
2023/05/22 05:32:06;;;;;;;21.02;14.63;;;;;;;;;;5094274;28;20422;-66
2023/05/22 05:34:31;;;;;;;22.77;15.25;;;;;;;;;;5094285;28;20029;-66
2023/05/22 05:36:56;;;;;;;22.45;15.50;;;;;;;;;;5092726;28;20016;-65
2023/05/22 05:39:22;;;;;;;20.80;16.17;;;;;;;;;;5090227;28;20107;-65
2023/05/22 05:41:47;;;;;;;19.45;15.13;;;;;;;;;;5079488;28;20480;-66
2023/05/22 05:44:12;;;;;;;20.10;14.15;;;;;;;;;;5075203;28;20017;-64
2023/05/22 05:46:38;;;;;;;20.42;15.20;;;;;;;;;;5084629;28;20027;-64
2023/05/22 05:49:08;;;;;;;20.60;14.15;;;;;;;;;;5088001;28;20464;-65
2023/05/22 05:51:34;;;;;;;20.90;14.47;;;;;;;;;;5089555;28;20456;-65
2023/05/22 05:53:59;;;;;;;18.10;12.45;;;;;;;;;;5094707;28;20285;-64
2023/05/22 05:56:24;;;;;;;18.92;14.10;;;;;;;;;;5094373;28;20095;-64
2023/05/22 05:58:50;;;;;;;18.00;14.27;;;;;;;;;;5095358;28;20464;-64
2023/05/22 06:01:15;;;;;;;21.17;15.07;;;;;;;;;;5093292;28;20476;-64
2023/05/22 06:03:41;;;;;;;20.02;14.80;;;;;;;;;;5089674;28;20059;-64
2023/05/22 06:06:06;;;;;;;18.52;14.27;;;;;;;;;;5089705;28;20047;-64
2023/05/22 06:08:33;;;;;;;20.00;14.98;;;;;;;;;;5093992;28;20032;-64
2023/05/22 06:10:58;;;;;;;21.63;15.43;;;;;;;;;;5095096;28;20035;-64
2023/05/22 06:13:23;;;;;;;25.10;16.58;;;;;;;;;;5092669;28;20456;-65
2023/05/22 06:15:49;;;;;;;21.42;15.25;;;;;;;;;;5091093;28;20020;-66
2023/05/22 06:18:14;;;;;;;20.02;15.43;;;;;;;;;;5085546;28;20095;-65
2023/05/22 06:20:39;;;;;;;22.92;16.40;;;;;;;;;;5092185;28;20080;-65
2023/05/22 06:23:04;;;;;;;25.10;16.98;;;;;;;;;;5084463;28;20071;-65
2023/05/22 06:25:30;;;;;;;23.77;16.88;;;;;;;;;;5094261;28;20386;-65
2023/05/22 06:27:55;;;;;;;32.15;19.88;;;;;;;;;;5093106;28;20028;-65
2023/05/22 06:30:21;;;;;;;28.58;20.52;;;;;;;;;;5093003;28;20375;-65
2023/05/22 06:32:46;;;;;;;28.85;20.52;;;;;;;;;;5080311;28;20024;-65
2023/05/22 06:35:12;;;;;;;30.48;21.50;;;;;;;;;;5074105;28;20016;-65
2023/05/22 06:37:37;;;;;;;37.20;24.65;;;;;;;;;;5084732;28;20032;-65
2023/05/22 06:40:03;;;;;;;33.55;23.75;;;;;;;;;;5093663;28;20036;-66
2023/05/22 06:42:28;;;;;;;40.85;26.10;;;;;;;;;;5088308;28;20024;-65
2023/05/22 06:44:54;;;;;;;33.33;23.55;;;;;;;;;;5093127;28;20040;-66
2023/05/22 06:47:19;;;;;;;38.45;25.58;;;;;;;;;;5089637;28;20356;-66
2023/05/22 06:49:44;;;;;;;29.70;21.35;;;;;;;;;;5093028;28;20080;-65
2023/05/22 06:52:10;;;;;;;34.20;21.75;;;;;;;;;;5092776;28;20036;-65
2023/05/22 06:54:35;;;;;;;28.50;21.15;;;;;;;;;;5093392;28;20097;-66
2023/05/22 06:57:02;;;;;;;27.33;19.73;;;;;;;;;;5087532;28;20051;-65
2023/05/22 06:59:29;;;;;;;26.20;19.67;;;;;;;;;;5091925;28;20073;-65
2023/05/22 07:01:54;;;;;;;22.88;17.52;;;;;;;;;;5087710;28;20119;-70
2023/05/22 07:04:19;;;;;;;23.33;17.77;;;;;;;;;;5092993;28;20485;-73
2023/05/22 07:06:45;;;;;;;25.52;17.15;;;;;;;;;;5092762;28;20064;-71
2023/05/22 07:09:10;;;;;;;22.92;16.60;;;;;;;;;;5093300;28;20024;-72
2023/05/22 07:11:36;;;;;;;20.77;16.15;;;;;;;;;;5079566;28;20032;-72
2023/05/22 07:14:01;;;;;;;22.20;16.20;;;;;;;;;;5091175;28;20097;-72
2023/05/22 07:16:28;;;;;;;27.08;18.13;;;;;;;;;;5085359;28;20055;-72
2023/05/22 07:18:53;;;;;;;22.13;17.40;;;;;;;;;;5092934;28;20150;-71
2023/05/22 07:21:22;;;;;;;22.73;17.00;;;;;;;;;;5090590;28;20074;-72
2023/05/22 07:23:47;;;;;;;19.92;15.32;;;;;;;;;;5082803;28;20403;-72
2023/05/22 07:26:13;;;;;;;24.38;15.70;;;;;;;;;;5079586;28;20035;-72
2023/05/22 07:28:38;;;;;;;22.75;15.20;;;;;;;;;;5074932;28;20441;-71
2023/05/22 07:31:03;;;;;;;23.98;17.05;;;;;;;;;;5091710;28;20467;-72
2023/05/22 07:33:29;;;;;;;20.45;14.13;;;;;;;;;;5088873;28;20028;-72
2023/05/22 07:35:54;;;;;;;21.70;15.15;;;;;;;;;;5093075;28;20020;-72
2023/05/22 07:38:19;;;;;;;24.65;15.48;;;;;;;;;;5091798;28;20047;-72
2023/05/22 07:40:45;;;;;;;20.75;15.48;;;;;;;;;;5092766;28;20032;-71
2023/05/22 07:43:10;;;;;;;20.90;15.50;;;;;;;;;;5085811;28;20048;-71
2023/05/22 07:45:37;;;;;;;19.90;15.25;;;;;;;;;;5092097;28;20063;-72
2023/05/22 07:48:03;;;;;;;21.20;16.17;;;;;;;;;;5085040;28;20020;-73
2023/05/22 07:50:29;;;;;;;21.67;15.10;;;;;;;;;;5088975;28;20028;-72
2023/05/22 07:52:54;;;;;;;21.08;14.60;;;;;;;;;;5087664;28;20017;-71
2023/05/22 07:55:20;;;;;;;22.20;16.17;;;;;;;;;;5091076;28;20081;-71
2023/05/22 07:57:46;;;;;;;22.38;14.40;;;;;;;;;;5091284;28;20475;-71
2023/05/22 08:00:12;;;;;;;19.85;14.30;;;;;;;;;;5089548;28;20073;-71
2023/05/22 08:02:37;;;;;;;18.05;12.93;;;;;;;;;;5088856;28;20388;-71
2023/05/22 08:05:03;;;;;;;18.20;13.43;;;;;;;;;;5085240;28;20024;-70
2023/05/22 08:07:28;;;;;;;19.42;12.68;;;;;;;;;;5085605;28;20024;-71
2023/05/22 08:09:53;;;;;;;15.15;11.23;;;;;;;;;;5097508;28;20388;-71
2023/05/22 08:12:19;;;;;;;17.58;11.32;;;;;;;;;;5096053;28;20031;-71
2023/05/22 08:14:44;;;;;;;15.05;11.68;;;;;;;;;;5096958;28;20054;-71
2023/05/22 08:17:09;;;;;;;17.15;12.23;;;;;;;;;;5094036;28;20020;-70
2023/05/22 08:19:35;;;;;;;15.07;10.55;;;;;;;;;;5091129;28;20024;-71
2023/05/22 08:22:00;;;;;;;17.55;11.50;;;;;;;;;;5093789;28;20091;-70
2023/05/22 08:24:27;;;;;;;22.17;12.88;;;;;;;;;;5092481;28;20032;-70
2023/05/22 08:26:53;;;;;;;16.50;11.05;;;;;;;;;;5095987;28;20105;-71
2023/05/22 08:29:18;;;;;;;14.45;11.10;;;;;;;;;;5095480;28;20071;-71
2023/05/22 08:31:43;;;;;;;16.50;12.05;;;;;;;;;;5095103;28;20024;-70
2023/05/22 08:34:09;;;;;;;16.15;11.88;;;;;;;;;;5092233;28;20028;-70
2023/05/22 08:36:35;;;;;;;16.00;12.25;;;;;;;;;;5093705;28;20016;-70
2023/05/22 08:39:00;;;;;;;16.02;12.70;;;;;;;;;;5095483;28;20027;-70
2023/05/22 08:41:26;;;;;;;17.65;12.75;;;;;;;;;;5090641;28;20074;-70
2023/05/22 08:43:52;;;;;;;21.27;13.35;;;;;;;;;;5091405;28;20035;-71
2023/05/22 08:46:18;;;;;;;20.77;14.80;;;;;;;;;;5093059;28;20033;-70
2023/05/22 08:48:44;;;;;;;21.15;14.77;;;;;;;;;;5090938;28;20134;-70
2023/05/22 08:51:12;;;;;;;19.25;15.00;;;;;;;;;;5089519;28;20103;-70
2023/05/22 08:53:37;;;;;;;19.98;15.52;;;;;;;;;;5091963;28;20023;-70
2023/05/22 08:56:07;;;;;;;22.42;16.58;;;;;;;;;;5092907;28;20468;-71
2023/05/22 08:58:33;;;;;;;22.58;16.77;;;;;;;;;;5088305;28;20020;-70
2023/05/22 09:00:59;;;;;;;22.30;17.10;;;;;;;;;;5093015;28;20103;-71
2023/05/22 09:03:31;;;;;;;21.13;17.55;;;;;;;;;;5091255;28;20132;-70
2023/05/22 09:06:00;;;;;;;21.52;17.17;;;;;;;;;;5093996;28;20074;-70
2023/05/22 09:08:26;;;;;;;26.17;17.40;;;;;;;;;;5095657;28;20080;-70
2023/05/22 09:10:53;;;;;;;23.77;17.35;;;;;;;;;;5095520;28;20418;-70
2023/05/22 09:13:26;;;;;;;25.33;18.08;;;;;;;;;;5093840;28;20047;-70
2023/05/22 09:15:51;;;;;;;21.80;17.23;;;;;;;;;;5085978;28;20437;-70
2023/05/22 09:18:17;;;;;;;24.50;17.27;;;;;;;;;;5090578;28;20031;-70
2023/05/22 09:20:42;;;;;;;20.52;16.30;;;;;;;;;;5095739;28;20028;-70
2023/05/22 09:23:11;;;;;;;23.60;17.38;;;;;;;;;;5094830;28;20028;-70
2023/05/22 09:25:36;;;;;;;22.25;15.73;;;;;;;;;;5095086;28;20031;-70
2023/05/22 09:28:03;;;;;;;23.20;15.20;;;;;;;;;;5095695;28;20020;-69
2023/05/22 09:30:28;;;;;;;23.35;14.38;;;;;;;;;;5095692;28;20060;-70
2023/05/22 09:32:53;;;;;;;20.10;14.98;;;;;;;;;;5094400;28;20468;-70
2023/05/22 09:35:19;;;;;;;20.38;15.30;;;;;;;;;;5095943;28;20020;-70
2023/05/22 09:37:45;;;;;;;21.05;14.45;;;;;;;;;;5095572;28;20426;-70
2023/05/22 09:40:12;;;;;;;17.50;13.70;;;;;;;;;;5095890;28;20024;-70
2023/05/22 09:42:37;;;;;;;23.88;15.82;;;;;;;;;;5094824;28;20059;-70
2023/05/22 09:45:03;;;;;;;17.95;14.68;;;;;;;;;;5095566;28;20024;-70
2023/05/22 09:47:29;;;;;;;20.85;15.10;;;;;;;;;;5095094;28;20028;-70
2023/05/22 09:49:56;;;;;;;20.20;15.07;;;;;;;;;;5095607;28;20060;-71
2023/05/22 09:52:22;;;;;;;19.52;14.73;;;;;;;;;;5094726;28;20031;-71
2023/05/22 09:54:53;;;;;;;21.02;14.88;;;;;;;;;;5094712;28;20020;-71
2023/05/22 09:57:19;;;;;;;20.00;15.15;;;;;;;;;;5095579;28;20100;-71
2023/05/22 09:59:48;;;;;;;24.33;16.38;;;;;;;;;;5095254;28;20366;-71
2023/05/22 10:02:13;;;;;;;26.08;15.98;;;;;;;;;;5087432;28;20040;-70
2023/05/22 10:04:39;;;;;;;23.98;15.00;;;;;;;;;;5091400;28;20016;-71
2023/05/22 10:07:05;;;;;;;20.30;15.05;;;;;;;;;;5093403;28;20028;-71
2023/05/22 10:09:33;;;;;;;18.30;15.10;;;;;;;;;;5094978;28;20024;-71
2023/05/22 10:12:02;;;;;;;19.92;14.45;;;;;;;;;;5093642;28;20024;-71
2023/05/22 10:14:28;;;;;;;16.50;13.93;;;;;;;;;;5094620;28;20500;-71
2023/05/22 10:16:53;;;;;;;20.15;13.93;;;;;;;;;;5090327;28;20020;-70
2023/05/22 10:19:19;;;;;;;19.80;14.52;;;;;;;;;;5095045;28;20082;-70
2023/05/22 10:21:46;;;;;;;19.15;14.38;;;;;;;;;;5094617;28;20016;-70
2023/05/22 10:24:12;;;;;;;20.38;13.95;;;;;;;;;;5093906;28;20024;-70
2023/05/22 10:26:37;;;;;;;17.83;13.60;;;;;;;;;;5094029;28;20040;-70
2023/05/22 10:29:16;;;;;;;17.52;12.65;;;;;;;;;;5094505;28;20066;-70
2023/05/22 10:31:48;;;;;;;18.77;11.82;;;;;;;;;;5092780;28;20023;-70
2023/05/22 10:34:21;;;;;;;18.08;11.90;;;;;;;;;;5094541;28;20016;-71
2023/05/22 10:37:19;;;;;;;17.23;11.45;;;;;;;;;;5093189;28;20077;-70
2023/05/22 10:39:59;;;;;;;16.20;11.43;;;;;;;;;;5082146;28;20085;-71
2023/05/22 10:42:27;;;;;;;15.32;10.63;;;;;;;;;;5094228;28;20016;-70
2023/05/22 10:44:53;;;;;;;15.05;11.05;;;;;;;;;;5094474;28;20020;-71
2023/05/22 10:47:18;;;;;;;15.35;11.60;;;;;;;;;;5080171;28;20059;-71
2023/05/22 10:49:44;;;;;;;19.10;11.57;;;;;;;;;;5074158;28;20015;-70
2023/05/22 10:52:10;;;;;;;15.65;10.40;;;;;;;;;;5074130;28;20017;-70
2023/05/22 10:54:42;;;;;;;13.20;9.80;;;;;;;;;;5074134;28;20017;-70
2023/05/22 10:57:17;;;;;;;16.77;10.52;;;;;;;;;;5089287;28;20031;-71
2023/05/22 11:00:02;;;;;;;13.75;9.40;;;;;;;;;;5094020;28;20012;-71
2023/05/22 11:02:29;;;;;;;12.65;9.30;;;;;;;;;;5089148;28;20040;-71
2023/05/22 11:04:55;;;;;;;14.32;9.38;;;;;;;;;;5090492;28;20020;-70
2023/05/22 11:07:21;;;;;;;14.02;8.65;;;;;;;;;;5093905;28;20016;-71
2023/05/22 11:09:47;;;;;;;13.93;8.75;;;;;;;;;;5094106;28;20480;-71
2023/05/22 11:12:18;;;;;;;14.65;8.13;;;;;;;;;;5093703;28;20107;-71
2023/05/22 11:15:01;;;;;;;10.18;8.00;;;;;;;;;;5093025;28;20024;-71
2023/05/22 11:17:28;;;;;;;14.27;8.48;;;;;;;;;;5085480;28;20495;-71
2023/05/22 11:20:00;;;;;;;11.75;8.05;;;;;;;;;;5093233;28;20016;-71
2023/05/22 11:22:32;;;;;;;14.75;7.65;;;;;;;;;;5093631;28;20016;-70
2023/05/22 11:24:58;;;;;;;11.10;7.55;;;;;;;;;;5092255;28;20024;-71
2023/05/22 11:27:23;;;;;;;14.20;8.00;;;;;;;;;;5093848;28;20375;-70
2023/05/22 11:29:49;;;;;;;11.18;7.53;;;;;;;;;;5093365;28;20103;-71
2023/05/22 11:32:19;;;;;;;11.98;8.00;;;;;;;;;;5091596;28;20046;-71
2023/05/22 11:34:45;;;;;;;11.23;6.78;;;;;;;;;;5093461;28;20055;-71
2023/05/22 11:37:10;;;;;;;11.57;7.25;;;;;;;;;;5093212;28;20047;-71
2023/05/22 11:39:35;;;;;;;9.88;6.82;;;;;;;;;;5093592;28;20024;-71
2023/05/22 11:42:03;;;;;;;9.57;7.10;;;;;;;;;;5092002;28;20023;-71
2023/05/22 11:44:28;;;;;;;11.25;6.55;;;;;;;;;;5093621;28;20027;-71
2023/05/22 11:46:54;;;;;;;9.95;6.70;;;;;;;;;;5091439;28;20393;-71
2023/05/22 11:49:22;;;;;;;12.05;6.85;;;;;;;;;;5093304;28;20161;-71
2023/05/22 11:51:48;;;;;;;10.38;6.40;;;;;;;;;;5091976;28;20433;-71
2023/05/22 11:54:16;;;;;;;8.88;6.85;;;;;;;;;;5091648;28;20024;-71
2023/05/22 11:56:41;;;;;;;12.90;7.68;;;;;;;;;;5093399;28;20495;-71
2023/05/22 11:59:06;;;;;;;16.75;7.60;;;;;;;;;;5093125;28;20016;-71
2023/05/22 12:01:32;;;;;;;9.48;6.55;;;;;;;;;;5093255;28;20028;-72
2023/05/22 12:03:57;;;;;;;10.15;6.88;;;;;;;;;;5090892;28;20458;-71
2023/05/22 12:06:22;;;;;;;9.60;6.18;;;;;;;;;;5092554;28;20474;-71
2023/05/22 12:08:48;;;;;;;10.88;6.32;;;;;;;;;;5092593;28;20085;-71
2023/05/22 12:11:13;;;;;;;8.57;5.97;;;;;;;;;;5092989;28;20104;-72
2023/05/22 12:13:38;;;;;;;9.77;6.90;;;;;;;;;;5090519;28;20379;-71
2023/05/22 12:16:16;;;;;;;12.50;7.55;;;;;;;;;;5090963;28;20020;-71
2023/05/22 12:18:41;;;;;;;11.18;7.43;;;;;;;;;;5090561;28;20468;-71
2023/05/22 12:21:07;;;;;;;10.32;6.72;;;;;;;;;;5093298;28;20028;-71
2023/05/22 12:23:32;;;;;;;13.07;8.25;;;;;;;;;;5092341;28;20040;-71
2023/05/22 12:25:58;;;;;;;13.40;7.32;;;;;;;;;;5093033;28;20024;-72
2023/05/22 12:28:24;;;;;;;12.05;7.18;;;;;;;;;;5087002;28;20349;-66
2023/05/22 12:30:53;;;;;;;14.98;8.27;;;;;;;;;;5092567;28;20043;-66
2023/05/22 12:33:19;;;;;;;11.98;8.25;;;;;;;;;;5092100;28;20416;-66
2023/05/22 12:35:44;;;;;;;14.60;7.97;;;;;;;;;;5092793;28;20099;-66
2023/05/22 12:38:12;;;;;;;14.63;8.32;;;;;;;;;;5092856;28;20043;-66
2023/05/22 12:40:37;;;;;;;11.25;7.30;;;;;;;;;;5092777;28;20032;-65
2023/05/22 12:43:02;;;;;;;10.32;7.10;;;;;;;;;;5091450;28;20043;-66
2023/05/22 12:45:28;;;;;;;12.50;7.50;;;;;;;;;;5092750;28;20107;-67
2023/05/22 12:47:53;;;;;;;10.38;6.97;;;;;;;;;;5092450;28;20029;-67
2023/05/22 12:50:18;;;;;;;10.18;7.30;;;;;;;;;;5096815;28;20028;-67
2023/05/22 12:52:43;;;;;;;12.43;6.28;;;;;;;;;;5096756;28;20027;-67
2023/05/22 12:55:09;;;;;;;10.73;6.90;;;;;;;;;;5093677;28;20522;-66
2023/05/22 12:57:34;;;;;;;12.15;7.13;;;;;;;;;;5096642;28;20024;-66
2023/05/22 13:00:00;;;;;;;13.13;7.40;;;;;;;;;;5096595;28;20490;-66
2023/05/22 13:02:25;;;;;;;10.10;7.28;;;;;;;;;;5088744;28;20097;-66
2023/05/22 13:04:51;;;;;;;12.25;8.02;;;;;;;;;;5074892;28;20025;-67
2023/05/22 13:07:16;;;;;;;10.98;7.78;;;;;;;;;;5075893;28;20384;-66
2023/05/22 13:09:41;;;;;;;11.23;7.82;;;;;;;;;;5075550;28;20035;-67
2023/05/22 13:12:07;;;;;;;15.40;8.13;;;;;;;;;;5075218;28;20020;-68
2023/05/22 13:14:32;;;;;;;15.13;8.23;;;;;;;;;;5075835;28;20020;-68
2023/05/22 13:16:57;;;;;;;12.90;8.05;;;;;;;;;;5076025;28;20465;-68
2023/05/22 13:19:23;;;;;;;12.25;8.20;;;;;;;;;;5074872;28;20021;-68
2023/05/22 13:21:48;;;;;;;13.18;7.60;;;;;;;;;;5074373;28;20020;-69
2023/05/22 13:24:13;;;;;;;11.93;7.20;;;;;;;;;;5073504;28;20055;-68
2023/05/22 13:26:38;;;;;;;10.77;6.95;;;;;;;;;;5073580;28;20031;-68
2023/05/22 13:29:04;;;;;;;11.52;7.00;;;;;;;;;;5074914;28;20453;-68
2023/05/22 13:31:32;;;;;;;12.38;7.00;;;;;;;;;;5074761;28;20094;-70
2023/05/22 13:33:57;;;;;;;9.10;6.82;;;;;;;;;;5066577;28;20014;-69
2023/05/22 13:36:22;;;;;;;11.32;7.75;;;;;;;;;;5069095;28;20023;-68
2023/05/22 13:38:47;;;;;;;12.85;7.25;;;;;;;;;;5073723;28;20021;-69
2023/05/22 13:41:14;;;;;;;12.02;7.30;;;;;;;;;;5055322;28;20138;-69
2023/05/22 13:43:39;;;;;;;12.07;7.38;;;;;;;;;;5064801;28;20484;-68
2023/05/22 13:46:05;;;;;;;13.77;7.32;;;;;;;;;;5069842;28;20023;-68
2023/05/22 13:48:30;;;;;;;11.25;7.32;;;;;;;;;;5067911;28;20035;-68
2023/05/22 13:50:55;;;;;;;12.68;7.45;;;;;;;;;;5071414;28;20189;-68
2023/05/22 13:53:21;;;;;;;13.38;7.30;;;;;;;;;;5072612;28;20150;-68
2023/05/22 13:55:46;;;;;;;10.93;7.68;;;;;;;;;;5069440;28;20017;-69
2023/05/22 13:58:11;;;;;;;13.45;7.20;;;;;;;;;;5070264;28;20020;-70
2023/05/22 14:00:36;;;;;;;12.90;6.97;;;;;;;;;;5069701;28;20530;-71
2023/05/22 14:03:02;;;;;;;9.75;7.10;;;;;;;;;;5071438;28;20139;-70
2023/05/22 14:05:27;;;;;;;13.50;7.13;;;;;;;;;;5086332;28;20028;-70
2023/05/22 14:07:53;;;;;;;13.35;6.65;;;;;;;;;;5090151;28;20098;-72
2023/05/22 14:10:18;;;;;;;9.60;6.45;;;;;;;;;;5089380;28;20028;-74
2023/05/22 14:12:43;;;;;;;11.30;6.97;;;;;;;;;;5093486;28;20016;-69
2023/05/22 14:15:09;;;;;;;10.80;6.57;;;;;;;;;;5085088;28;20008;-69
2023/05/22 14:17:34;;;;;;;12.38;6.93;;;;;;;;;;5090873;28;20438;-70
2023/05/22 14:19:59;;;;;;;11.82;7.47;;;;;;;;;;5086277;28;20048;-69
2023/05/22 14:22:25;;;;;;;12.43;7.57;;;;;;;;;;5082927;28;20169;-68